Flight Track Log - Related Links

Times and Time Zones

All times are in EDT time to prevent confusion due to time zone crossing. See the SWA118 flight status page for this flight to view local times or setup timezone preferences in your user account.

Time Position Orientation Groundspeed Altitude Reporting Facility
EDT Latitude Longitude Course Direction KTS MPH feet Rate Location/Type
Sat 02:39:19 PM 33.6500 -84.4833 287° West 192 221 2,500  Level Atlanta TRACON
Sat 02:40:19 PM 33.6667 -84.5500 287° West 262 302 4,800 2,850 Climbing Atlanta TRACON
Sat 02:41:19 PM 33.6833 -84.6500 281° West 268 308 8,200 2,600 Climbing Atlanta TRACON
Sat 02:42:19 PM 33.7000 -84.7333 284° West 267 307 10,000 1,303 Climbing Atlanta TRACON
Sat 02:43:51 PM 33.6600 -84.8625 250° West 275 316 11,500 1,579 Climbing Atlanta Center
Sat 02:44:51 PM 33.6239 -84.9444 242° Southwest 275 316 14,000 1,650 Climbing Atlanta Center
Sat 02:45:51 PM 33.5878 -85.0389 245° Southwest 301 346 14,800 1,800 Climbing Atlanta Center
Sat 02:46:51 PM 33.5517 -85.1231 243° Southwest 312 359 17,600 2,200 Climbing Atlanta Center
Sat 02:47:51 PM 33.5131 -85.2197 244° Southwest 322 371 19,200 1,800 Climbing Atlanta Center
Sat 02:49:51 PM 33.4794 -85.4361 260° West 322 371 23,000 1,833 Climbing Atlanta Center
Sat 02:50:51 PM 33.4617 -85.5453 259° West 334 384 24,700 1,450 Climbing Atlanta Center
Sat 02:51:51 PM 33.4433 -85.6594 259° West 339 390 25,900 800 Climbing Atlanta Center
Sat 02:52:51 PM 33.4250 -85.7886 260° West 351 404 26,300 800 Climbing Atlanta Center
Sat 02:53:51 PM 33.4022 -85.9075 257° West 365 420 27,500 1,450 Climbing Atlanta Center
Sat 02:54:51 PM 33.3836 -86.0342 260° West 375 432 29,200 1,400 Climbing Atlanta Center
Sat 02:55:51 PM 33.3628 -86.1553 258° West 375 432 30,300 1,200 Climbing Atlanta Center
Sat 02:56:51 PM 33.3336 -86.2717 253° West 375 432 31,600 1,200 Climbing Atlanta Center
Sat 02:57:51 PM 33.2939 -86.3825 247° West 370 426 32,700 900 Climbing Atlanta Center
Sat 02:58:51 PM 33.2500 -86.5031 247° West 377 434 33,400 650 Climbing Atlanta Center
Sat 02:59:51 PM 33.2125 -86.6011 245° Southwest 366 421 34,000 300 Climbing Atlanta Center
Sat 03:00:51 PM 33.1744 -86.7117 248° West 370 426 34,000  Level Atlanta Center
Sat 03:01:51 PM 33.1303 -86.8219 244° Southwest 370 426 34,000  Level Atlanta Center
Sat 03:02:51 PM 33.0944 -86.9300 248° West 370 426 34,000  Level Atlanta Center
Sat 03:03:51 PM 33.0481 -87.0450 244° Southwest 370 426 34,000  Level Atlanta Center
Sat 03:04:51 PM 33.0075 -87.1550 246° West 370 426 34,000  Level Atlanta Center
Sat 03:05:51 PM 32.9672 -87.2675 247° West 370 426 34,000  Level Atlanta Center
Sat 03:06:51 PM 32.9289 -87.3747 247° West 370 426 34,000  Level Atlanta Center
Sat 03:07:51 PM 32.8861 -87.4844 245° Southwest 376 433 34,000  Level Atlanta Center
Sat 03:09:08 PM 32.8278 -87.6281 244° Southwest 372 428 34,000  Level Memphis Center
Sat 03:10:08 PM 32.7864 -87.7403 246° West 372 428 34,000  Level Memphis Center
Sat 03:11:09 PM 32.7428 -87.8528 245° Southwest 372 428 34,000  Level Memphis Center
Sat 03:12:08 PM 32.7114 -87.9575 250° West 377 434 34,000  Level Memphis Center
Sat 03:13:08 PM 32.6781 -88.0719 251° West 377 434 34,000  Level Memphis Center
Sat 03:14:08 PM 32.6406 -88.1889 249° West 372 428 34,000  Level Memphis Center
Sat 03:15:08 PM 32.6069 -88.3056 251° West 372 428 34,000  Level Memphis Center
Sat 03:16:08 PM 32.5733 -88.4197 251° West 372 428 34,000  Level Memphis Center
Sat 03:17:08 PM 32.5353 -88.5364 249° West 372 428 34,000  Level Memphis Center
Sat 03:18:08 PM 32.5017 -88.6553 251° West 372 428 34,000  Level Memphis Center
Sat 03:19:08 PM 32.4656 -88.7742 250° West 379 436 34,000  Level Memphis Center
Sat 03:20:08 PM 32.4294 -88.8881 249° West 379 436 34,000  Level Memphis Center
Sat 03:21:09 PM 32.3931 -89.0042 250° West 379 436 34,000  Level Memphis Center
Sat 03:22:08 PM 32.3567 -89.1203 250° West 379 436 34,000  Level Memphis Center
Sat 03:23:08 PM 32.3225 -89.2364 251° West 379 436 34,000  Level Memphis Center
Sat 03:24:08 PM 32.2858 -89.3522 249° West 379 436 34,000  Level Memphis Center
Sat 03:25:08 PM 32.2492 -89.4656 249° West 379 436 34,000  Level Memphis Center
Sat 03:26:08 PM 32.2122 -89.5814 249° West 379 436 34,000  Level Memphis Center
Sat 03:27:08 PM 32.1775 -89.6972 251° West 379 436 34,000  Level Memphis Center
Sat 03:28:09 PM 32.1406 -89.8103 249° West 379 436 34,000  Level Memphis Center
Sat 03:29:08 PM 32.1053 -89.9258 250° West 379 436 34,000  Level Memphis Center
Sat 03:30:08 PM 32.0703 -90.0411 250° West 374 430 34,000  Level Memphis Center
Sat 03:31:08 PM 32.0308 -90.1589 248° West 374 430 34,000  Level Memphis Center
Sat 03:32:08 PM 31.9933 -90.2717 249° West 374 430 34,000  Level Memphis Center
Sat 03:33:08 PM 31.9600 -90.3842 251° West 374 430 34,000  Level Memphis Center
Sat 03:34:57 PM 31.8919 -90.5894 249° West 371 427 34,000  Level Houston Center
Sat 03:35:59 PM 31.8558 -90.7028 249° West 371 427 34,000  Level Houston Center
Sat 03:37:01 PM 31.8214 -90.8147 250° West 365 420 34,000  Level Houston Center
Sat 03:38:03 PM 31.7767 -90.9500 249° West 375 432 34,000  Level Houston Center
Sat 03:39:04 PM 31.7411 -91.0617 249° West 371 427 34,000  Level Houston Center
Sat 03:40:06 PM 31.7006 -91.1778 248° West 379 436 34,000  Level Houston Center
Sat 03:41:08 PM 31.6625 -91.2886 248° West 370 426 34,000  Level Houston Center
Sat 03:42:09 PM 31.6222 -91.4022 247° West 375 432 34,000  Level Houston Center
Sat 03:43:11 PM 31.5844 -91.5139 248° West 373 429 34,000  Level Houston Center
Sat 03:44:13 PM 31.5447 -91.6264 248° West 375 432 34,000  Level Houston Center
Sat 03:45:15 PM 31.4981 -91.7606 248° West 371 427 34,000  Level Houston Center
Sat 03:46:16 PM 31.4586 -91.8728 248° West 373 429 34,000  Level Houston Center
Sat 03:47:18 PM 31.4197 -91.9856 248° West 375 432 34,000  Level Houston Center
Sat 03:48:20 PM 31.3822 -92.0886 247° West 372 428 34,000  Level Houston Center
Sat 03:49:21 PM 31.3428 -92.2003 248° West 374 430 34,000  Level Houston Center
Sat 03:50:23 PM 31.2964 -92.3331 248° West 370 426 34,000  Level Houston Center
Sat 03:51:25 PM 31.2564 -92.4439 247° West 371 427 34,000  Level Houston Center
Sat 03:52:27 PM 31.2172 -92.5556 248° West 374 430 34,000  Level Houston Center
Sat 03:53:28 PM 31.1772 -92.6664 247° West 373 429 34,000  Level Houston Center
Sat 03:54:30 PM 31.1375 -92.7772 247° West 371 427 34,000  Level Houston Center
Sat 03:55:32 PM 31.0978 -92.8881 247° West 371 427 34,000  Level Houston Center
Sat 03:56:34 PM 31.0572 -93.0000 247° West 369 425 34,000  Level Houston Center
Sat 03:57:35 PM 31.0103 -93.1289 247° West 370 426 34,000  Level Houston Center
Sat 03:58:37 PM 30.9694 -93.2394 247° West 373 429 34,000  Level Houston Center
Sat 03:59:39 PM 30.9300 -93.3494 247° West 373 429 34,000  Level Houston Center
Sat 04:00:41 PM 30.8889 -93.4597 247° West 374 430 34,000  Level Houston Center
Sat 04:01:42 PM 30.8497 -93.5683 247° West 370 426 34,000  Level Houston Center
Sat 04:02:44 PM 30.8103 -93.6775 247° West 370 426 34,000 -435 Level Houston Center
Sat 04:03:46 PM 30.7614 -93.8089 247° West 372 428 33,100 -919 Descending Houston Center
Sat 04:04:48 PM 30.7219 -93.9128 246° West 359 413 32,100 -1,122 Descending Houston Center
Sat 04:05:49 PM 30.6842 -94.0153 247° West 350 403 30,800 -1,366 Descending Houston Center
Sat 04:06:51 PM 30.6436 -94.1239 247° West 360 414 29,300 -2,491 Descending Houston Center
Sat 04:07:35 PM 30.6050 -94.2258 246° West 393 452 26,400 -3,290 Descending Houston Center
Sat 04:07:53 PM 30.6000 -94.2411 249° West 386 444 25,900 -2,700 Descending Houston Center
Sat 04:08:55 PM 30.5497 -94.3753 247° West 381 438 22,800 -2,836 Descending Houston Center
Sat 04:09:43 PM 30.5150 -94.4636 245° Southwest 375 432 20,700 -2,243 Descending Houston Center
Sat 04:10:50 PM 30.4586 -94.5753 240° Southwest 370 426 18,500 -1,839 Descending Houston Center
Sat 04:12:00 PM 30.3950 -94.6731 233° Southwest 372 428 16,500 -2,308 Descending Houston Center
Sat 04:12:47 PM 30.3339 -94.7658 233° Southwest 366 421 14,000 -3,000 Descending Houston Center
Sat 04:13:02 PM 30.3217 -94.7867 236° Southwest 368 423 13,400 -984 Descending Houston Center
Sat 04:13:48 PM 30.2753 -94.8556 232° Southwest 344 396 13,000 -387 Descending Houston Center
Sat 04:14:04 PM 30.2644 -94.8758 238° Southwest 349 402 13,000 -295 Level Houston Center
Sat 04:14:49 PM 30.2169 -94.9475 233° Southwest 339 390 12,700 -492 Descending Houston Center
Sat 04:15:05 PM 30.2089 -94.9617 237° Southwest 339 390 12,500 -984 Descending Houston Center
Sat 04:15:50 PM 30.1600 -95.0344 232° Southwest 347 399 11,700 -871 Descending Houston Center
Sat 04:16:07 PM 30.1508 -95.0508 237° Southwest 346 398 11,600 -885 Descending Houston Center
Sat 04:16:51 PM 30.0794 -95.0950 208° Southwest 352 405 10,800 -968 Descending Houston Center
Sat 04:17:09 PM 30.0644 -95.1019 202° Southwest 355 409 10,600 -689 Descending Houston Center
Sat 04:17:52 PM 29.9825 -95.1361 200° South 352 405 10,100 -581 Descending Houston Center
Sat 04:18:11 PM 29.9731 -95.1417 207° Southwest 354 407 10,000 -98 Descending Houston Center
Sat 04:18:53 PM 29.8956 -95.1731 199° South 296 341 10,000 -387 Level Houston Center
Sat 04:19:13 PM 29.8731 -95.1769 189° South 312 359 9,600 -1,279 Descending Houston Center
Sat 04:19:54 PM 29.8172 -95.1875 189° South 276 318 8,700 -1,279 Descending Houston Center
Sat 04:20:14 PM 29.7972 -95.1917 190° South 279 321 8,300 -1,475 Descending Houston Center
Sat 04:20:55 PM 29.7450 -95.2036 191° South 264 304 7,200 -1,548 Descending Houston Center
Sat 04:21:16 PM 29.7258 -95.2064 187° South 265 305 6,700 -1,161 Descending Houston Center
Sat 04:21:57 PM 29.6708 -95.2175 190° South 266 306 6,000 -677 Descending Houston Center
Sat 04:22:18 PM 29.6539 -95.2206 189° South 267 307 6,000 -393 Level Houston Center
Sat 04:22:58 PM 29.5986 -95.2311 189° South 237 273 5,600 -677 Descending Houston Center
Sat 04:23:20 PM 29.5767 -95.2367 192° South 248 285 5,300 -982 Descending Houston Center
Sat 04:23:53 PM 29.5481 -95.2539 208° Southwest 221 254 4,700 -1,258 Descending Houston Center
Sat 04:24:22 PM 29.5267 -95.2767 223° Southwest 230 265 4,000 -1,377 Descending Houston Center
Sat 04:24:54 PM 29.5006 -95.3078 226° Southwest 232 267 3,300 -1,161 Descending Houston Center
Sat 04:25:24 PM 29.5011 -95.3375 271° West 236 272 2,800 -1,075 Descending Houston Center
Sat 04:26:01 PM 29.5278 -95.3742 310° West 232 267 2,100 -774 Descending Houston Center
Sat 04:26:26 PM 29.5486 -95.3761 355° North 232 267 2,000 -295 Descending Houston Center
Sat 04:27:02 PM 29.5783 -95.3536 33° Northeast 173 199 1,800 -484 Descending Houston Center
Sat 04:27:28 PM 29.5878 -95.3419 47° Northeast 199 229 1,500 -806 Descending Houston Center
Sat 04:28:09 PM 29.6128 -95.3158 42° Northeast 147 169 900 -787 Descending Houston Center
Sat 04:28:29 PM 29.6181 -95.3097 45° Northeast 169 194 700 -585 Descending Houston Center
Sat 04:29:31 PM 29.6497 -95.2744 44° Northeast 155 178 100 -581 Descending Houston Center

Login

Don't have an account? Register now (free) for customized features, flight alerts, and more!